Time;durP1;ratioP1;P1;durP2;ratioP2;P2;SDS_P1;SDS_P2;PMS_P1;PMS_P2;Temp;Humidity;BMP_temperature;BMP_pressure;BME280_temperature;BME280_humidity;BME280_pressure;Samples;Min_cycle;Max_cycle;Signal;HPM_P1;HPM_P2
2023/10/05 00:02:56;;;;;;;2.43;1.13;;;8.60;95.60;;;;;;5011703;28;20473;-64
2023/10/05 00:05:23;;;;;;;6.60;1.57;;;8.60;95.50;;;;;;5010885;28;20481;-64
2023/10/05 00:07:50;;;;;;;2.53;1.60;;;8.60;95.40;;;;;;5011984;28;20472;-64
2023/10/05 00:10:17;;;;;;;3.93;2.03;;;8.50;95.40;;;;;;5011261;28;20774;-64
2023/10/05 00:12:47;;;;;;;5.63;2.97;;;8.40;96.00;;;;;;5010822;28;20771;-64
2023/10/05 00:15:15;;;;;;;7.67;2.20;;;8.30;96.70;;;;;;5011839;28;20517;-64
2023/10/05 00:17:42;;;;;;;7.30;2.17;;;8.30;96.40;;;;;;5011956;28;20569;-64
2023/10/05 00:20:14;;;;;;;22.27;2.47;;;8.40;96.10;;;;;;5012091;28;20485;-64
2023/10/05 00:22:42;;;;;;;8.13;2.03;;;8.40;95.90;;;;;;5009943;28;20556;-64
2023/10/05 00:25:11;;;;;;;15.03;2.70;;;8.40;95.70;;;;;;5007196;28;20488;-64
2023/10/05 00:27:38;;;;;;;2.63;1.53;;;8.30;95.70;;;;;;5009772;28;21041;-64
2023/10/05 00:30:07;;;;;;;7.63;2.13;;;8.20;96.40;;;;;;5012515;28;20999;-65
2023/10/05 00:32:36;;;;;;;3.20;1.73;;;8.20;96.90;;;;;;5010485;28;21171;-65
2023/10/05 00:35:16;;;;;;;3.47;1.70;;;8.20;96.90;;;;;;5011011;28;20935;-64
2023/10/05 00:37:45;;;;;;;4.33;2.10;;;8.30;96.60;;;;;;5000763;28;20474;-64
2023/10/05 00:40:24;;;;;;;2.63;1.80;;;8.30;96.50;;;;;;5010883;28;20488;-64
2023/10/05 00:42:51;;;;;;;4.43;1.47;;;8.40;96.00;;;;;;5012581;28;20521;-64
2023/10/05 00:45:24;;;;;;;6.37;1.70;;;8.30;95.80;;;;;;5015812;28;20471;-64
2023/10/05 00:48:01;;;;;;;16.63;2.80;;;;;;;;;;5015172;28;20560;-64
2023/10/05 00:50:28;;;;;;;3.70;1.63;;;;;;;;;;5017731;28;20477;-64
2023/10/05 00:52:55;;;;;;;3.23;2.33;;;8.30;95.60;;;;;;5017103;28;20484;-64
2023/10/05 00:55:22;;;;;;;9.00;2.40;;;8.30;95.50;;;;;;5018044;28;20481;-64
2023/10/05 00:57:50;;;;;;;15.13;2.73;;;8.40;95.70;;;;;;5023185;28;20481;-64
2023/10/05 01:00:27;;;;;;;45.30;4.00;;;8.30;95.50;;;;;;5016100;28;20479;-64
2023/10/05 01:03:16;;;;;;;2.63;1.97;;;8.40;95.50;;;;;;5016419;28;20556;-64
2023/10/05 01:05:51;;;;;;;2.70;1.80;;;8.30;95.40;;;;;;5007247;28;20468;-64
2023/10/05 01:08:23;;;;;;;14.60;2.63;;;8.30;95.40;;;;;;5017421;28;20518;-64
2023/10/05 01:10:54;;;;;;;6.43;2.23;;;8.20;95.20;;;;;;5017098;28;20472;-64
2023/10/05 01:13:31;;;;;;;3.77;2.67;;;8.20;95.20;;;;;;5014841;28;20489;-64
2023/10/05 01:15:59;;;;;;;10.00;1.97;;;8.30;95.20;;;;;;5017205;28;20480;-64
2023/10/05 01:18:29;;;;;;;8.53;2.70;;;8.30;95.20;;;;;;5014289;28;20501;-64
2023/10/05 01:21:00;;;;;;;8.10;2.17;;;8.30;95.10;;;;;;5014327;28;20825;-64
2023/10/05 01:23:37;;;;;;;2.50;1.50;;;8.30;95.10;;;;;;5016379;28;20519;-64
2023/10/05 01:26:04;;;;;;;4.93;2.37;;;8.30;95.00;;;;;;5017302;28;20477;-64
2023/10/05 01:28:32;;;;;;;4.33;2.03;;;;;;;;;;5016615;28;20538;-64
2023/10/05 01:31:04;;;;;;;11.23;1.87;;;8.30;95.30;;;;;;5010631;28;20844;-64
2023/10/05 01:33:31;;;;;;;14.43;2.20;;;8.30;95.30;;;;;;5014897;28;20918;-64
2023/10/05 01:35:58;;;;;;;12.20;2.60;;;8.30;95.30;;;;;;5015228;28;21050;-64
2023/10/05 01:38:24;;;;;;;3.00;1.20;;;8.20;95.10;;;;;;5016575;28;21088;-64
2023/10/05 01:40:56;;;;;;;6.03;1.53;;;8.10;95.40;;;;;;5015642;28;20473;-64
2023/10/05 01:43:23;;;;;;;19.60;2.43;;;8.20;95.70;;;;;;5007446;28;20488;-64
2023/10/05 01:45:50;;;;;;;11.93;1.73;;;8.20;95.60;;;;;;5019377;28;20483;-64
2023/10/05 01:48:18;;;;;;;4.00;1.03;;;8.20;95.60;;;;;;5012458;28;20494;-64
2023/10/05 01:50:45;;;;;;;26.63;3.37;;;8.20;95.60;;;;;;5026133;28;20573;-64
2023/10/05 01:53:15;;;;;;;3.40;1.30;;;8.30;95.50;;;;;;5016728;28;20575;-64
2023/10/05 01:55:44;;;;;;;5.20;1.80;;;8.30;95.50;;;;;;5015274;28;20571;-64
2023/10/05 01:58:23;;;;;;;2.57;1.83;;;8.20;95.80;;;;;;5017931;28;20475;-64
2023/10/05 02:00:50;;;;;;;4.50;2.20;;;8.10;95.80;;;;;;5015304;28;20476;-64
2023/10/05 02:03:19;;;;;;;17.77;2.90;;;8.10;96.00;;;;;;5011298;28;20489;-64
2023/10/05 02:05:47;;;;;;;2.47;1.37;;;8.10;96.00;;;;;;5013155;28;20627;-64
2023/10/05 02:08:15;;;;;;;1.97;1.57;;;8.20;95.90;;;;;;5010974;28;20485;-64
2023/10/05 02:10:46;;;;;;;12.00;1.77;;;8.20;95.80;;;;;;5014146;28;20979;-64
2023/10/05 02:13:14;;;;;;;4.20;2.20;;;8.20;95.60;;;;;;5016341;28;20512;-64
2023/10/05 02:15:41;;;;;;;4.20;1.93;;;8.20;95.50;;;;;;5013950;28;20477;-64
2023/10/05 02:18:18;;;;;;;7.20;2.40;;;8.20;95.90;;;;;;5014952;28;20497;-64
2023/10/05 02:20:46;;;;;;;2.57;1.80;;;8.20;95.70;;;;;;5013658;28;20487;-64
2023/10/05 02:23:25;;;;;;;3.17;1.60;;;8.20;95.90;;;;;;5016128;28;20500;-64
2023/10/05 02:25:57;;;;;;;3.70;1.90;;;8.30;96.10;;;;;;5017955;28;20581;-64
2023/10/05 02:28:26;;;;;;;5.30;1.63;;;;;;;;;;5015039;28;20986;-64
2023/10/05 02:30:54;;;;;;;40.30;4.23;;;8.30;95.80;;;;;;5016394;28;20554;-64
2023/10/05 02:33:26;;;;;;;5.03;1.80;;;8.40;95.80;;;;;;5008491;28;20879;-64
2023/10/05 02:35:59;;;;;;;2.97;1.33;;;8.30;95.60;;;;;;5027724;28;20618;-65
2023/10/05 02:38:26;;;;;;;1.90;1.03;;;8.20;95.50;;;;;;5014664;28;20558;-64
2023/10/05 02:41:04;;;;;;;13.80;3.00;;;8.20;95.50;;;;;;5016789;28;20500;-65
2023/10/05 02:43:38;;;;;;;5.27;1.63;;;8.20;95.40;;;;;;5017132;28;20478;-65
2023/10/05 02:46:09;;;;;;;2.03;1.77;;;8.10;95.40;;;;;;5004541;28;20985;-64
2023/10/05 02:48:38;;;;;;;10.53;2.17;;;8.10;95.50;;;;;;5017669;28;20461;-64
2023/10/05 02:51:05;;;;;;;3.93;1.77;;;8.00;95.60;;;;;;5013511;28;20499;-64
2023/10/05 02:53:40;;;;;;;13.30;2.30;;;8.00;95.70;;;;;;5016444;28;20524;-64
2023/10/05 02:56:20;;;;;;;11.00;1.90;;;8.00;95.80;;;;;;5021894;28;21075;-64
2023/10/05 02:58:50;;;;;;;2.00;1.30;;;8.00;95.70;;;;;;5005053;28;20569;-64
2023/10/05 03:01:17;;;;;;;4.40;1.97;;;7.90;96.00;;;;;;5015669;28;20481;-64
2023/10/05 03:03:43;;;;;;;3.10;1.60;;;7.80;96.40;;;;;;5019344;28;20464;-64
2023/10/05 03:06:10;;;;;;;13.00;2.40;;;7.80;96.70;;;;;;5018678;28;20477;-64
2023/10/05 03:08:37;;;;;;;3.20;2.00;;;7.80;97.00;;;;;;5016449;28;20485;-64
2023/10/05 03:11:07;;;;;;;2.70;1.83;;;7.70;97.10;;;;;;5018993;28;20476;-64
2023/10/05 03:13:33;;;;;;;9.83;2.10;;;7.80;97.00;;;;;;5019426;28;21042;-64
2023/10/05 03:16:06;;;;;;;2.43;1.77;;;7.80;97.10;;;;;;5018413;28;20484;-65
2023/10/05 03:18:34;;;;;;;2.73;1.50;;;7.90;97.10;;;;;;5020269;28;20531;-64
2023/10/05 03:21:09;;;;;;;11.07;2.20;;;8.00;96.80;;;;;;5015595;28;20619;-64
2023/10/05 03:23:37;;;;;;;8.03;2.33;;;8.10;96.60;;;;;;5024574;28;20483;-64
2023/10/05 03:26:04;;;;;;;25.47;3.00;;;8.20;96.70;;;;;;5018379;28;20616;-63
2023/10/05 03:28:31;;;;;;;1.87;1.00;;;8.20;96.70;;;;;;5019597;28;20480;-63
2023/10/05 03:31:06;;;;;;;6.37;3.30;;;8.30;96.80;;;;;;5020063;28;20511;-63
2023/10/05 03:33:33;;;;;;;3.90;1.60;;;8.30;96.70;;;;;;5003224;28;20522;-63
2023/10/05 03:36:06;;;;;;;5.13;1.77;;;8.30;97.10;;;;;;5022950;28;20506;-63
2023/10/05 03:38:33;;;;;;;3.63;2.50;;;8.40;97.10;;;;;;5011110;28;20568;-63
2023/10/05 03:41:04;;;;;;;12.60;2.30;;;8.40;97.10;;;;;;5009384;28;20496;-63
2023/10/05 03:43:32;;;;;;;1.97;1.10;;;8.40;97.10;;;;;;5019022;28;21181;-63
2023/10/05 03:46:08;;;;;;;3.33;1.70;;;8.40;97.00;;;;;;5020028;28;20482;-63
2023/10/05 03:48:38;;;;;;;14.57;2.37;;;8.40;96.90;;;;;;5015340;28;20985;-63
2023/10/05 03:51:15;;;;;;;12.03;2.00;;;8.40;96.90;;;;;;5015789;28;20507;-64
2023/10/05 03:53:48;;;;;;;10.93;2.70;;;8.40;96.80;;;;;;5032202;28;20480;-63
2023/10/05 03:56:17;;;;;;;8.87;1.93;;;8.40;96.80;;;;;;5007459;28;20496;-63
2023/10/05 03:58:45;;;;;;;3.13;1.50;;;8.40;96.90;;;;;;5015285;28;20964;-63
2023/10/05 04:01:13;;;;;;;7.20;1.60;;;8.50;96.80;;;;;;5014485;28;20589;-63
2023/10/05 04:03:40;;;;;;;2.27;1.90;;;8.50;96.70;;;;;;5012639;28;20888;-63
2023/10/05 04:06:17;;;;;;;4.87;2.50;;;8.50;96.90;;;;;;5016757;28;20552;-63
2023/10/05 04:08:54;;;;;;;2.07;1.87;;;8.50;96.90;;;;;;5015519;28;20480;-63
2023/10/05 04:11:21;;;;;;;3.93;2.30;;;8.60;96.90;;;;;;5015445;28;21646;-63
2023/10/05 04:13:50;;;;;;;13.33;3.40;;;8.40;97.30;;;;;;5020153;28;20553;-63
2023/10/05 04:16:21;;;;;;;6.87;2.00;;;8.30;97.70;;;;;;5015962;28;21360;-64
2023/10/05 04:18:50;;;;;;;8.23;1.57;;;8.20;97.70;;;;;;5017530;28;20571;-63
2023/10/05 04:21:18;;;;;;;9.53;1.90;;;8.30;97.60;;;;;;5020036;28;20492;-64
2023/10/05 04:23:49;;;;;;;4.53;1.53;;;8.40;97.50;;;;;;5018076;28;20557;-64
2023/10/05 04:26:17;;;;;;;8.20;1.43;;;8.50;97.40;;;;;;5019545;28;21042;-64
2023/10/05 04:28:52;;;;;;;8.97;2.40;;;8.50;97.20;;;;;;5016593;28;21889;-63
2023/10/05 04:31:25;;;;;;;3.90;2.13;;;8.50;97.10;;;;;;5023531;28;21063;-64
2023/10/05 04:33:52;;;;;;;3.50;1.97;;;8.30;97.30;;;;;;5025025;28;21009;-63
2023/10/05 04:36:20;;;;;;;3.60;2.00;;;8.30;97.90;;;;;;5017522;28;20492;-64
2023/10/05 04:38:46;;;;;;;3.63;2.30;;;8.30;97.80;;;;;;5019283;28;20508;-65
2023/10/05 04:41:13;;;;;;;2.70;2.10;;;8.30;97.70;;;;;;5018495;28;20484;-64
2023/10/05 04:43:41;;;;;;;6.27;2.00;;;8.50;97.40;;;;;;5017583;28;20488;-64
2023/10/05 04:46:09;;;;;;;4.30;1.77;;;8.50;97.40;;;;;;5010871;28;20494;-64
2023/10/05 04:48:39;;;;;;;8.97;2.13;;;8.50;97.50;;;;;;5026225;28;20575;-64
2023/10/05 04:51:06;;;;;;;6.47;2.30;;;8.50;97.50;;;;;;5017523;28;20464;-64
2023/10/05 04:53:33;;;;;;;1.87;0.83;;;8.60;97.40;;;;;;5018160;28;20626;-64
2023/10/05 04:56:12;;;;;;;9.03;2.40;;;8.60;97.20;;;;;;5018951;28;20928;-64
2023/10/05 04:58:53;;;;;;;4.63;2.10;;;8.70;97.20;;;;;;5019752;28;20555;-64
2023/10/05 05:01:28;;;;;;;2.37;1.37;;;8.70;97.10;;;;;;5017111;28;21088;-64
2023/10/05 05:04:12;;;;;;;2.67;1.10;;;8.70;96.90;;;;;;5017736;28;20823;-64
2023/10/05 05:06:41;;;;;;;1.80;1.10;;;8.70;97.00;;;;;;5007942;28;20488;-64
2023/10/05 05:09:11;;;;;;;20.47;2.93;;;8.70;97.00;;;;;;5005503;28;20481;-64
2023/10/05 05:11:39;;;;;;;2.43;1.60;;;8.70;97.00;;;;;;5022561;28;20567;-64
2023/10/05 05:14:07;;;;;;;10.03;2.33;;;8.70;97.10;;;;;;5015025;28;20547;-64
2023/10/05 05:16:35;;;;;;;8.73;1.90;;;8.60;97.00;;;;;;5015964;28;20495;-64
2023/10/05 05:19:04;;;;;;;32.47;3.77;;;8.60;97.30;;;;;;5017478;28;20516;-64
2023/10/05 05:21:30;;;;;;;7.10;2.20;;;8.70;97.30;;;;;;5008894;28;20593;-64
2023/10/05 05:23:58;;;;;;;3.57;1.83;;;8.70;97.10;;;;;;5021907;28;20828;-64
2023/10/05 05:26:25;;;;;;;4.57;1.37;;;8.70;97.00;;;;;;5016183;28;20500;-64
2023/10/05 05:28:53;;;;;;;6.43;1.73;;;8.80;97.00;;;;;;5024323;28;20487;-65
2023/10/05 05:31:21;;;;;;;4.43;2.63;;;8.80;96.90;;;;;;5010645;28;20481;-64
2023/10/05 05:33:48;;;;;;;4.63;2.67;;;;;;;;;;5016394;28;21237;-64
2023/10/05 05:36:17;;;;;;;3.20;2.40;;;8.80;97.00;;;;;;5017070;28;20468;-64
2023/10/05 05:38:47;;;;;;;14.00;2.50;;;8.90;97.00;;;;;;5017949;28;20477;-64
2023/10/05 05:41:18;;;;;;;3.67;1.67;;;8.90;96.90;;;;;;5016739;28;20707;-64
2023/10/05 05:43:45;;;;;;;12.40;1.97;;;9.00;97.20;;;;;;5018186;28;20522;-64
2023/10/05 05:46:13;;;;;;;3.27;1.70;;;9.00;97.00;;;;;;5014213;28;20472;-64
2023/10/05 05:48:42;;;;;;;15.03;2.97;;;9.00;97.40;;;;;;5009434;28;21006;-63
2023/10/05 05:51:14;;;;;;;4.20;1.97;;;9.00;97.70;;;;;;5004646;28;22320;-64
2023/10/05 05:53:44;;;;;;;2.40;1.50;;;9.00;97.50;;;;;;5021291;28;21127;-64
2023/10/05 05:56:16;;;;;;;2.80;2.03;;;9.10;97.30;;;;;;5014696;28;20487;-64
2023/10/05 05:58:45;;;;;;;19.90;3.07;;;9.10;97.10;;;;;;5018716;28;20879;-64
2023/10/05 06:01:14;;;;;;;5.73;1.73;;;9.20;97.20;;;;;;5010916;28;20524;-64
2023/10/05 06:03:42;;;;;;;3.07;2.07;;;9.20;97.20;;;;;;5025832;28;20974;-64
2023/10/05 06:06:08;;;;;;;18.47;3.50;;;9.20;97.40;;;;;;5021681;28;21080;-64
2023/10/05 06:08:35;;;;;;;19.57;2.80;;;9.30;97.80;;;;;;5023733;28;20488;-64
2023/10/05 06:11:08;;;;;;;11.10;2.53;;;9.30;97.90;;;;;;5005969;28;20508;-64
2023/10/05 06:13:36;;;;;;;11.20;2.70;;;9.30;97.70;;;;;;5031471;28;21233;-64
2023/10/05 06:16:05;;;;;;;4.00;1.90;;;9.40;97.70;;;;;;5013050;28;20491;-64
2023/10/05 06:18:32;;;;;;;7.20;1.90;;;9.40;97.80;;;;;;5023372;28;20464;-64
2023/10/05 06:21:00;;;;;;;12.03;2.53;;;9.50;97.80;;;;;;5019074;28;20472;-64
2023/10/05 06:23:27;;;;;;;2.50;2.17;;;9.50;97.70;;;;;;5022058;28;21052;-64
2023/10/05 06:25:54;;;;;;;4.20;2.20;;;9.50;97.50;;;;;;5015819;28;20563;-64
2023/10/05 06:28:22;;;;;;;13.83;2.10;;;9.60;97.90;;;;;;5010657;28;20484;-64
2023/10/05 06:30:51;;;;;;;2.83;1.30;;;9.60;97.90;;;;;;5019721;28;20514;-64
2023/10/05 06:33:17;;;;;;;3.17;2.33;;;9.70;97.90;;;;;;5017709;28;20772;-64
2023/10/05 06:35:44;;;;;;;7.63;3.37;;;9.70;97.80;;;;;;5016425;28;20496;-64
2023/10/05 06:38:11;;;;;;;4.30;2.97;;;9.80;98.10;;;;;;5006355;28;20920;-64
2023/10/05 06:40:37;;;;;;;6.30;2.73;;;9.80;98.10;;;;;;5031095;28;20488;-64
2023/10/05 06:43:05;;;;;;;17.23;2.50;;;9.90;98.20;;;;;;5018780;28;21192;-64
2023/10/05 06:45:35;;;;;;;19.27;3.77;;;9.90;98.10;;;;;;5019640;28;20529;-64
2023/10/05 06:48:03;;;;;;;3.23;1.90;;;;;;;;;;5016359;28;20560;-64
2023/10/05 06:50:30;;;;;;;4.10;2.50;;;10.00;97.80;;;;;;5021079;28;20484;-64
2023/10/05 06:52:57;;;;;;;17.10;3.60;;;10.10;97.60;;;;;;5020518;28;21248;-64
2023/10/05 06:55:24;;;;;;;17.00;3.00;;;10.20;97.70;;;;;;5028792;28;21026;-64
2023/10/05 06:57:51;;;;;;;6.80;2.60;;;10.30;97.90;;;;;;5018348;28;20913;-64
2023/10/05 07:00:21;;;;;;;2.93;2.27;;;10.40;98.10;;;;;;5015161;28;20528;-64
2023/10/05 07:02:50;;;;;;;6.37;2.60;;;10.40;97.80;;;;;;5009441;28;20568;-64
2023/10/05 07:05:18;;;;;;;5.33;2.90;;;10.50;98.10;;;;;;5032645;28;21150;-64
2023/10/05 07:07:45;;;;;;;4.60;2.47;;;10.60;98.40;;;;;;5019973;28;20484;-64
2023/10/05 07:10:14;;;;;;;4.97;2.00;;;10.70;98.40;;;;;;5019952;28;20477;-63
2023/10/05 07:12:45;;;;;;;7.20;4.20;;;10.80;98.30;;;;;;5020690;28;20476;-64
2023/10/05 07:15:12;;;;;;;10.30;3.07;;;10.90;98.30;;;;;;5021048;28;20562;-64
2023/10/05 07:17:38;;;;;;;3.17;2.13;;;11.00;98.20;;;;;;5014304;28;20501;-64
2023/10/05 07:20:11;;;;;;;8.40;2.40;;;11.10;98.20;;;;;;5018956;28;20472;-65
2023/10/05 07:22:39;;;;;;;1.90;1.40;;;11.20;98.40;;;;;;5018146;28;20508;-64
2023/10/05 07:25:14;;;;;;;2.83;2.03;;;11.40;98.70;;;;;;5018671;28;20508;-64
2023/10/05 07:27:41;;;;;;;7.77;2.30;;;11.50;98.70;;;;;;5009071;28;20472;-64
2023/10/05 07:30:09;;;;;;;8.03;3.60;;;11.70;98.60;;;;;;5017214;28;20481;-64
2023/10/05 07:32:36;;;;;;;4.10;2.60;;;11.80;98.70;;;;;;5011585;28;20491;-64
2023/10/05 07:35:05;;;;;;;11.93;2.50;;;11.90;98.60;;;;;;5024450;28;20978;-64
2023/10/05 07:37:33;;;;;;;6.73;2.90;;;12.00;98.50;;;;;;5021947;28;20477;-65
2023/10/05 07:40:00;;;;;;;3.03;2.73;;;12.10;98.60;;;;;;5014074;28;20761;-65
2023/10/05 07:42:28;;;;;;;11.73;2.73;;;12.30;98.80;;;;;;5018616;28;20481;-65
2023/10/05 07:44:56;;;;;;;6.17;3.93;;;12.40;99.00;;;;;;5019048;28;20541;-65
2023/10/05 07:47:24;;;;;;;22.73;4.40;;;12.50;98.90;;;;;;5017181;28;20508;-65
2023/10/05 07:49:53;;;;;;;5.40;3.20;;;12.50;98.80;;;;;;5018153;28;20492;-65
2023/10/05 07:52:20;;;;;;;8.80;3.17;;;12.40;99.10;;;;;;5011758;28;20575;-64
2023/10/05 07:54:48;;;;;;;12.13;3.77;;;12.40;99.50;;;;;;5018947;28;20484;-64
2023/10/05 07:57:15;;;;;;;10.50;3.37;;;12.40;99.50;;;;;;5024198;28;20468;-64
2023/10/05 07:59:43;;;;;;;3.40;2.57;;;12.50;99.50;;;;;;5023227;28;20481;-64
2023/10/05 08:02:10;;;;;;;13.23;4.30;;;12.50;99.70;;;;;;5019639;28;20502;-64
2023/10/05 08:04:37;;;;;;;7.13;4.00;;;12.60;99.80;;;;;;5011412;28;20472;-64
2023/10/05 08:07:04;;;;;;;10.37;3.80;;;12.60;99.90;;;;;;5017869;28;20492;-64
2023/10/05 08:09:31;;;;;;;18.43;4.63;;;12.60;99.90;;;;;;5018172;28;20477;-64
2023/10/05 08:11:59;;;;;;;6.60;3.93;;;12.60;99.90;;;;;;5017570;28;21001;-64
2023/10/05 08:14:26;;;;;;;6.13;2.90;;;12.70;99.90;;;;;;5013594;28;20493;-64
2023/10/05 08:16:55;;;;;;;12.97;3.90;;;12.90;99.90;;;;;;5020646;28;20487;-64
2023/10/05 08:19:24;;;;;;;7.70;3.53;;;12.90;99.90;;;;;;5018830;28;21628;-64
2023/10/05 08:21:51;;;;;;;17.20;3.73;;;13.10;99.90;;;;;;5019397;28;20481;-64
2023/10/05 08:24:19;;;;;;;8.80;4.00;;;13.30;99.90;;;;;;5018270;28;20491;-64
2023/10/05 08:26:46;;;;;;;7.80;3.87;;;13.50;99.90;;;;;;5015021;28;21064;-64
2023/10/05 08:29:15;;;;;;;21.47;5.00;;;13.80;99.90;;;;;;5018008;28;20476;-64
2023/10/05 08:31:44;;;;;;;5.77;3.27;;;14.00;99.90;;;;;;5013384;28;20854;-64
2023/10/05 08:34:14;;;;;;;12.73;4.27;;;14.10;99.90;;;;;;5017252;28;20487;-64
2023/10/05 08:36:41;;;;;;;3.70;3.30;;;14.10;99.90;;;;;;5016391;28;20563;-64
2023/10/05 08:39:08;;;;;;;6.00;4.67;;;14.20;99.90;;;;;;5018229;28;20773;-64
2023/10/05 08:41:35;;;;;;;7.47;3.83;;;14.20;99.90;;;;;;5018519;28;20477;-65
2023/10/05 08:44:10;;;;;;;11.03;4.43;;;14.30;99.90;;;;;;5018083;28;20511;-65
2023/10/05 08:46:42;;;;;;;9.40;2.93;;;14.40;99.90;;;;;;5016235;28;20477;-65
2023/10/05 08:49:10;;;;;;;18.10;4.30;;;14.60;99.80;;;;;;5014258;28;20493;-65
2023/10/05 08:51:39;;;;;;;6.27;3.90;;;14.70;99.80;;;;;;5018418;28;20571;-65
2023/10/05 08:54:09;;;;;;;18.43;4.13;;;14.80;99.60;;;;;;5013916;28;20497;-65
2023/10/05 08:56:38;;;;;;;10.53;3.40;;;14.90;99.80;;;;;;4999181;28;20570;-65
2023/10/05 08:59:07;;;;;;;5.83;3.27;;;14.90;99.30;;;;;;5015684;28;20577;-65
2023/10/05 09:01:35;;;;;;;4.60;3.13;;;15.10;99.80;;;;;;5021212;28;20520;-65
2023/10/05 09:04:23;;;;;;;16.00;4.20;;;15.30;99.80;;;;;;5018469;28;20485;-65
2023/10/05 09:06:52;;;;;;;7.87;3.97;;;15.50;99.80;;;;;;5013486;28;20890;-65
2023/10/05 09:09:30;;;;;;;4.10;2.60;;;15.50;99.40;;;;;;5015854;28;20575;-64
2023/10/05 09:11:57;;;;;;;7.97;2.73;;;15.80;98.70;;;;;;5017154;28;20494;-64
2023/10/05 09:14:28;;;;;;;5.53;3.07;;;15.90;98.60;;;;;;5013540;28;20564;-66
2023/10/05 09:17:07;;;;;;;22.17;4.00;;;16.10;98.30;;;;;;5014892;28;20487;-67
2023/10/05 09:19:37;;;;;;;7.00;4.00;;;16.20;98.10;;;;;;5007094;28;20844;-66
2023/10/05 09:22:12;;;;;;;13.17;4.20;;;16.30;98.00;;;;;;5001909;28;21061;-66
2023/10/05 09:24:43;;;;;;;17.63;3.80;;;16.30;97.80;;;;;;4994210;28;20454;-67
2023/10/05 09:27:17;;;;;;;17.23;3.80;;;16.40;97.00;;;;;;5017093;28;20531;-66
2023/10/05 09:29:44;;;;;;;5.30;3.37;;;16.50;97.50;;;;;;5003446;28;20473;-67
2023/10/05 09:32:24;;;;;;;9.57;3.30;;;16.60;96.70;;;;;;5012094;28;20488;-66
2023/10/05 09:34:56;;;;;;;7.60;3.20;;;16.70;96.50;;;;;;5008615;28;20495;-67
2023/10/05 09:37:25;;;;;;;20.97;4.13;;;17.00;96.30;;;;;;5008866;28;20480;-67
2023/10/05 09:39:54;;;;;;;4.10;2.37;;;17.30;96.50;;;;;;5012720;28;20472;-67
2023/10/05 09:42:25;;;;;;;15.13;3.30;;;17.40;95.90;;;;;;5017165;28;20485;-67
2023/10/05 09:44:53;;;;;;;9.50;2.77;;;17.30;95.40;;;;;;5017636;28;20478;-68
2023/10/05 09:47:25;;;;;;;10.03;3.33;;;17.50;96.30;;;;;;5010681;28;20476;-67
2023/10/05 09:49:56;;;;;;;11.23;2.63;;;;;;;;;;5004531;28;20552;-66
2023/10/05 09:52:29;;;;;;;4.70;2.73;;;17.60;95.20;;;;;;5016535;28;20473;-66
2023/10/05 09:54:56;;;;;;;3.50;2.37;;;17.70;95.80;;;;;;5018414;28;20480;-66
2023/10/05 09:57:26;;;;;;;8.30;3.90;;;17.80;95.10;;;;;;5021354;28;20495;-66
2023/10/05 09:59:59;;;;;;;5.30;2.40;;;18.10;95.60;;;;;;5017221;28;20473;-66
2023/10/05 10:02:35;;;;;;;14.97;3.77;;;18.20;95.10;;;;;;5015810;28;20572;-66
2023/10/05 10:05:25;;;;;;;20.30;4.30;;;18.30;93.80;;;;;;5019548;28;20483;-66
2023/10/05 10:07:55;;;;;;;8.33;5.00;;;18.50;95.40;;;;;;5007020;28;20858;-66
2023/10/05 10:10:24;;;;;;;7.30;2.10;;;18.80;94.40;;;;;;5017863;28;20566;-66
2023/10/05 10:12:53;;;;;;;12.47;2.80;;;19.30;95.30;;;;;;5009545;28;20572;-66
2023/10/05 10:15:28;;;;;;;3.70;2.20;;;19.50;94.20;;;;;;5004263;28;20491;-66
2023/10/05 10:18:13;;;;;;;3.50;1.90;;;19.50;92.90;;;;;;5007009;28;20946;-67
2023/10/05 10:20:45;;;;;;;8.93;2.07;;;;;;;;;;5023136;28;21192;-65
2023/10/05 10:23:19;;;;;;;8.27;2.20;;;19.60;93.30;;;;;;5018038;28;21116;-66
2023/10/05 10:25:46;;;;;;;20.07;2.90;;;19.50;92.10;;;;;;5019926;28;20491;-66
2023/10/05 10:28:20;;;;;;;5.03;1.87;;;19.60;92.30;;;;;;5016887;28;20492;-67
2023/10/05 10:31:16;;;;;;;2.30;1.83;;;19.50;92.80;;;;;;5021661;28;21014;-67
2023/10/05 10:33:43;;;;;;;3.90;2.07;;;19.50;92.80;;;;;;5026577;28;20483;-65
2023/10/05 10:36:18;;;;;;;7.07;2.80;;;19.40;92.90;;;;;;5019547;28;20504;-66
2023/10/05 10:38:46;;;;;;;6.30;2.60;;;19.40;92.10;;;;;;5021529;28;20454;-67
2023/10/05 10:41:15;;;;;;;14.70;3.23;;;19.90;93.80;;;;;;5005498;28;20491;-66
2023/10/05 10:43:48;;;;;;;5.67;2.40;;;20.00;92.50;;;;;;5023160;28;20483;-66
2023/10/05 10:46:20;;;;;;;19.27;3.27;;;20.50;93.10;;;;;;5020128;28;20485;-66
2023/10/05 10:48:57;;;;;;;4.10;2.70;;;20.70;92.20;;;;;;5018087;28;20489;-66
2023/10/05 10:51:28;;;;;;;5.67;2.00;;;20.70;91.30;;;;;;5011699;28;20484;-67
2023/10/05 10:53:57;;;;;;;18.40;2.80;;;20.60;91.30;;;;;;5018446;28;20496;-67
2023/10/05 10:56:29;;;;;;;15.97;2.70;;;20.40;91.30;;;;;;5015353;28;20523;-66
2023/10/05 10:59:11;;;;;;;3.80;2.37;;;20.40;90.70;;;;;;5014942;28;20479;-66
2023/10/05 11:01:43;;;;;;;13.63;3.53;;;20.50;91.40;;;;;;5021329;28;20476;-66
2023/10/05 11:04:26;;;;;;;6.57;2.70;;;20.40;90.90;;;;;;5018464;28;20498;-65
2023/10/05 11:06:56;;;;;;;20.07;3.70;;;20.70;92.10;;;;;;5020370;28;20480;-65
2023/10/05 11:09:35;;;;;;;5.20;2.40;;;20.80;91.20;;;;;;5020474;28;21107;-65
2023/10/05 11:12:10;;;;;;;8.77;2.73;;;20.90;91.00;;;;;;5020543;28;20475;-66
2023/10/05 11:14:38;;;;;;;8.37;2.70;;;20.60;90.70;;;;;;4989887;28;20466;-66
2023/10/05 11:17:11;;;;;;;15.23;2.73;;;20.60;90.40;;;;;;5005461;28;20468;-66
2023/10/05 11:19:40;;;;;;;7.63;1.87;;;20.40;90.40;;;;;;5021321;28;20523;-66
2023/10/05 11:22:11;;;;;;;23.67;3.40;;;20.20;91.40;;;;;;5018392;28;20812;-66
2023/10/05 11:25:14;;;;;;;9.93;2.50;;;20.20;90.70;;;;;;5016741;28;20475;-66
2023/10/05 11:27:54;;;;;;;33.73;4.10;;;20.00;91.00;;;;;;4998846;28;20522;-66
2023/10/05 11:30:21;;;;;;;11.93;2.57;;;20.10;91.20;;;;;;5010111;28;20473;-65
2023/10/05 11:32:54;;;;;;;8.47;2.10;;;20.10;91.50;;;;;;5008494;28;20503;-65
2023/10/05 11:35:28;;;;;;;24.57;3.53;;;20.00;90.20;;;;;;5030725;28;20451;-65
2023/10/05 11:38:03;;;;;;;3.07;2.73;;;19.90;90.70;;;;;;5016380;28;20587;-68
2023/10/05 11:40:34;;;;;;;5.83;1.83;;;19.90;90.60;;;;;;5023550;28;20494;-65
2023/10/05 11:43:04;;;;;;;9.50;2.93;;;19.60;90.30;;;;;;5015816;28;20500;-65
2023/10/05 11:45:33;;;;;;;5.80;2.20;;;19.40;90.30;;;;;;5019335;28;20492;-66
2023/10/05 11:48:03;;;;;;;4.27;2.50;;;;;;;;;;5017333;28;20493;-66
2023/10/05 11:50:33;;;;;;;8.30;2.47;;;19.30;91.30;;;;;;5016799;28;20485;-66
2023/10/05 11:53:06;;;;;;;10.20;2.70;;;19.30;91.10;;;;;;5016321;28;20476;-66
2023/10/05 11:55:35;;;;;;;9.83;2.43;;;;;;;;;;5022984;28;20550;-65
2023/10/05 11:58:02;;;;;;;6.33;2.27;;;19.30;91.70;;;;;;5021602;28;20789;-66
2023/10/05 12:00:31;;;;;;;5.30;2.20;;;19.40;91.90;;;;;;5017232;28;20473;-65
2023/10/05 12:02:58;;;;;;;8.57;1.83;;;19.40;91.80;;;;;;5020231;28;20481;-65
2023/10/05 12:05:25;;;;;;;3.57;2.03;;;19.50;92.10;;;;;;5013820;28;20473;-66
2023/10/05 12:07:52;;;;;;;4.77;3.17;;;19.50;91.90;;;;;;5007648;28;20656;-66
2023/10/05 12:10:20;;;;;;;11.30;3.07;;;19.60;91.80;;;;;;5024621;28;20484;-66
2023/10/05 12:12:50;;;;;;;2.23;1.80;;;19.60;91.70;;;;;;5002665;28;21057;-66
2023/10/05 12:15:19;;;;;;;6.77;2.60;;;19.60;91.30;;;;;;5009783;28;20488;-66
2023/10/05 12:17:46;;;;;;;3.97;3.13;;;19.70;91.40;;;;;;5018167;28;20883;-66
2023/10/05 12:20:13;;;;;;;3.50;2.50;;;19.60;91.00;;;;;;5013109;28;20604;-66
2023/10/05 12:22:40;;;;;;;20.43;3.30;;;19.40;91.10;;;;;;5014785;28;20487;-66
2023/10/05 12:25:08;;;;;;;3.40;2.23;;;19.50;91.80;;;;;;5009267;28;20531;-66
2023/10/05 12:27:37;;;;;;;4.07;2.33;;;19.50;91.60;;;;;;5017811;28;20489;-66
2023/10/05 12:30:10;;;;;;;6.90;3.13;;;19.40;91.50;;;;;;5022798;28;20469;-66
2023/10/05 12:32:38;;;;;;;5.50;1.87;;;19.30;91.80;;;;;;5021404;28;21001;-66
2023/10/05 12:35:08;;;;;;;6.90;2.40;;;19.30;92.10;;;;;;5011826;28;20925;-66
2023/10/05 12:37:35;;;;;;;6.87;2.83;;;19.30;91.30;;;;;;5008487;28;20484;-66
2023/10/05 12:40:17;;;;;;;4.33;2.07;;;19.40;91.90;;;;;;5015053;28;20444;-66
2023/10/05 12:42:51;;;;;;;7.37;2.60;;;19.50;91.80;;;;;;5009840;28;20486;-66
2023/10/05 12:45:22;;;;;;;14.80;2.80;;;19.50;91.80;;;;;;5017499;28;21114;-66
2023/10/05 12:47:52;;;;;;;4.30;2.03;;;19.50;92.10;;;;;;5016496;28;20971;-66
2023/10/05 12:50:20;;;;;;;15.30;2.60;;;19.60;92.00;;;;;;5017358;28;20531;-66
2023/10/05 12:52:50;;;;;;;5.03;2.23;;;19.60;91.70;;;;;;5016910;28;21233;-65
2023/10/05 12:55:18;;;;;;;21.43;3.33;;;19.50;91.20;;;;;;5019219;28;21234;-65
2023/10/05 12:57:50;;;;;;;10.40;2.93;;;19.40;92.10;;;;;;5020532;28;20568;-65
2023/10/05 13:00:21;;;;;;;10.93;2.90;;;19.50;92.10;;;;;;5018000;28;20463;-65
2023/10/05 13:02:51;;;;;;;3.40;2.40;;;19.50;91.70;;;;;;5013253;28;21212;-65
2023/10/05 13:05:21;;;;;;;11.07;2.90;;;19.50;91.60;;;;;;5008043;28;20549;-65
2023/10/05 13:07:49;;;;;;;5.27;2.40;;;19.50;91.20;;;;;;5007434;28;20691;-65
2023/10/05 13:10:26;;;;;;;4.13;2.17;;;19.60;91.30;;;;;;5018714;28;20564;-64